Flight Track Log - Related Links

Times and Time Zones

All times are in EDT time to prevent confusion due to time zone crossing. See the SKW6528 flight status page for this flight to view local times or setup timezone preferences in your user account.

Time Position Orientation Groundspeed Altitude Reporting Facility
EDT Latitude Longitude Course Direction KTS MPH feet Rate Location/Type
Sun 12:11:29 PM 39.8750 -104.5961 90° East 210 242 6,500  Level Denver Center
Sun 12:12:31 PM 39.8542 -104.5236 111° Southeast 218 251 8,900 2,032 Climbing Denver Center
Sun 12:13:33 PM 39.8203 -104.4242 114° Southeast 280 322 10,700 2,081 Climbing Denver Center
Sun 12:14:00 PM 39.7667 -104.0256 90° East  Level FlightAware
Sun 12:14:35 PM 39.8081 -104.3186 99° East 300 345 13,200  Level Denver Center
Sun 12:15:00 PM 39.7500 -103.8673 90° East  Level FlightAware
Sun 12:15:37 PM 39.7925 -104.1947 99° East 332 382 14,800  Level Denver Center
Sun 12:16:00 PM 39.7333 -103.7081 90° East  Level FlightAware
Sun 12:16:40 PM 39.7781 -104.0700 99° East 346 398 16,400  Level Denver Center
Sun 12:17:42 PM 39.7644 -103.9372 98° East 369 425 18,000 1,548 Climbing Denver Center
Sun 12:18:44 PM 39.7467 -103.7922 99° East 380 437 19,600 1,403 Climbing Denver Center
Sun 12:19:46 PM 39.7356 -103.6678 97° East 371 427 20,900 1,355 Climbing Denver Center
Sun 12:20:48 PM 39.7217 -103.5014 96° East 392 451 22,400 1,258 Climbing Denver Center
Sun 12:21:50 PM 39.6975 -103.3569 102° East 406 467 23,500 1,016 Climbing Denver Center
Sun 12:22:52 PM 39.6692 -103.2108 104° East 414 476 24,500 919 Climbing Denver Center
Sun 12:23:54 PM 39.6392 -103.0619 105° East 421 484 25,400 871 Climbing Denver Center
Sun 12:24:56 PM 39.6092 -102.9100 104° East 430 495 26,300 774 Climbing Denver Center
Sun 12:25:58 PM 39.5783 -102.7564 105° East 436 502 27,000 677 Climbing Denver Center
Sun 12:27:00 PM 39.5467 -102.5983 105° East 447 514 27,700 581 Climbing Denver Center
Sun 12:28:02 PM 39.5136 -102.4386 105° East 454 522 28,200 677 Climbing Denver Center
Sun 12:29:04 PM 39.4761 -102.2558 105° East 458 527 29,100 677 Climbing Denver Center
Sun 12:30:06 PM 39.4442 -102.1028 105° East 461 531 29,600 484 Climbing Denver Center
Sun 12:31:08 PM 39.4058 -101.9228 105° East 466 536 30,100 387 Climbing Denver Center
Sun 12:32:10 PM 39.3736 -101.7669 105° East 469 540 30,400 435 Climbing Denver Center
Sun 12:33:12 PM 39.3353 -101.5850 105° East 472 543 31,000 484 Climbing Denver Center
Sun 12:34:14 PM 39.3014 -101.4283 106° East 474 545 31,400 484 Climbing Denver Center
Sun 12:35:16 PM 39.2628 -101.2483 105° East 469 540 32,000 532 Climbing Denver Center
Sun 12:36:18 PM 39.2292 -101.0933 106° East 470 541 32,500 484 Climbing Denver Center
Sun 12:37:20 PM 39.1900 -100.9122 106° East 470 541 33,000 242 Climbing Denver Center
Sun 12:38:22 PM 39.1547 -100.7564 106° East 474 545 33,000  Level Denver Center
Sun 12:39:24 PM 39.1133 -100.5714 106° East 481 554 33,000  Level Denver Center
Sun 12:40:27 PM 39.0775 -100.4100 106° East 487 560 33,000  Level Denver Center
Sun 12:41:29 PM 39.0339 -100.2200 106° East 494 568 33,000  Level Denver Center
Sun 12:42:31 PM 38.9969 -100.0567 106° East 497 572 33,000  Level Denver Center
Sun 12:43:33 PM 38.9592 -99.8906 106° East 501 577 33,000  Level Denver Center
Sun 12:44:35 PM 38.9139 -99.6975 107° East 504 580 33,000  Level Denver Center
Sun 12:45:37 PM 38.8764 -99.5339 106° East 500 575 33,000  Level Denver Center
Sun 12:46:39 PM 38.8319 -99.3444 107° East 498 573 33,000  Level Denver Center
Sun 12:47:11 PM 38.8114 -99.2642 108° East 496 571 33,000  Level Kansas Center
Sun 12:48:14 PM 38.7733 -99.0958 106° East 491 565 33,000  Level Kansas Center
Sun 12:49:15 PM 38.7331 -98.9292 107° East 488 562 33,000  Level Kansas Center
Sun 12:50:19 PM 38.6936 -98.7628 107° East 488 562 33,000  Level Kansas Center
Sun 12:51:19 PM 38.6536 -98.5989 107° East 483 556 33,000  Level Kansas Center
Sun 12:52:20 PM 38.6053 -98.4008 107° East 484 557 33,000  Level Kansas Center
Sun 12:53:24 PM 38.5650 -98.2383 108° East 479 551 33,000  Level Kansas Center
Sun 12:54:25 PM 38.5256 -98.0756 107° East 478 550 33,000  Level Kansas Center
Sun 12:55:26 PM 38.4847 -97.9139 108° East 476 548 33,000  Level Kansas Center
Sun 12:56:30 PM 38.4447 -97.7528 108° East 474 545 33,000  Level Kansas Center
Sun 12:57:30 PM 38.4039 -97.5922 108° East 473 544 33,000  Level Kansas Center
Sun 12:58:34 PM 38.3633 -97.4328 108° East 471 542 33,000  Level Kansas Center
Sun 12:59:34 PM 38.3231 -97.2742 108° East 469 540 33,000  Level Kansas Center
Sun 01:00:37 PM 38.2728 -97.0839 109° East 470 541 33,000  Level Kansas Center
Sun 01:01:38 PM 38.2328 -96.9258 108° East 468 539 33,000  Level Kansas Center
Sun 01:02:42 PM 38.1914 -96.7686 108° East 468 539 33,000  Level Kansas Center
Sun 01:03:43 PM 38.1494 -96.6108 109° East 470 541 33,000  Level Kansas Center
Sun 01:04:43 PM 38.1086 -96.4556 108° East 465 535 33,000  Level Kansas Center
Sun 01:05:47 PM 38.0672 -96.2989 109° East 468 539 33,000  Level Kansas Center
Sun 01:06:49 PM 38.0181 -96.1164 109° East 466 536 33,000  Level Kansas Center
Sun 01:07:51 PM 37.9783 -95.9700 109° East 461 531 33,000  Level Kansas Center
Sun 01:08:52 PM 37.9325 -95.8017 109° East 462 532 33,000  Level Kansas Center
Sun 01:09:54 PM 37.8911 -95.6478 109° East 461 531 33,000 -96 Level Kansas Center
Sun 01:10:57 PM 37.8492 -95.4956 109° East 459 528 32,800 -581 Descending Kansas Center
Sun 01:11:58 PM 37.8050 -95.3392 110° East 463 533 31,800 -1,200 Descending Kansas Center
Sun 01:13:02 PM 37.7600 -95.1772 109° East 476 548 30,300 -1,935 Descending Kansas Center
Sun 01:14:02 PM 37.7128 -95.0036 109° East 479 551 27,800 -2,557 Descending Kansas Center
Sun 01:15:04 PM 37.6667 -94.8431 110° East 452 520 25,100 -2,448 Descending Kansas Center
Sun 01:16:07 PM 37.6253 -94.6967 110° East 444 511 22,700 -2,286 Descending Kansas Center
Sun 01:17:10 PM 37.5850 -94.5547 110° East 434 499 20,300 -2,274 Descending Kansas Center
Sun 01:18:11 PM 37.5447 -94.4175 110° East 422 486 18,000 -2,049 Descending Kansas Center
Sun 01:19:13 PM 37.5083 -94.2842 109° East 409 471 16,100 -1,258 Descending Kansas Center
Sun 01:20:15 PM 37.4778 -94.1561 107° East 392 451 15,400 -1,776 Descending Kansas Center
Sun 01:21:18 PM 37.4478 -94.0161 105° East 372 428 12,400 -2,053 Descending Kansas Center
Sun 01:23:22 PM 37.3958 -93.8025 107° East 316 364 9,000 -1,645 Descending Kansas Center
Sun 01:24:24 PM 37.3775 -93.7172 105° East 273 314 7,300 -1,707 Descending Kansas Center
Sun 01:25:25 PM 37.3586 -93.6372 107° East 251 289 5,500 -1,707 Descending Kansas Center
Sun 01:26:27 PM 37.3403 -93.5603 107° East 240 276 3,800 -1,190 Descending Kansas Center
Sun 01:27:31 PM 37.3161 -93.4747 110° East 226 260 3,000 -750 Descending Kansas Center

Login

Don't have an account? Register now (free) for customized features, flight alerts, and more!